sensor_id;sensor_type;location;lat;lon;timestamp;P1;durP1;ratioP1;P2;durP2;ratioP2
26690;SDS011;14307;51.718;8.938;2022-12-29T00:00:06;9.90;;;9.50;;
26690;SDS011;14307;51.718;8.938;2022-12-29T00:02:39;10.32;;;9.93;;
26690;SDS011;14307;51.718;8.938;2022-12-29T00:05:06;9.15;;;8.75;;
26690;SDS011;14307;51.718;8.938;2022-12-29T00:07:34;8.27;;;7.80;;
26690;SDS011;14307;51.718;8.938;2022-12-29T00:10:00;8.10;;;7.50;;
26690;SDS011;14307;51.718;8.938;2022-12-29T00:12:27;7.40;;;7.00;;
26690;SDS011;14307;51.718;8.938;2022-12-29T00:15:14;7.10;;;6.80;;
26690;SDS011;14307;51.718;8.938;2022-12-29T00:17:59;7.38;;;7.07;;
26690;SDS011;14307;51.718;8.938;2022-12-29T00:20:26;8.38;;;7.85;;
26690;SDS011;14307;51.718;8.938;2022-12-29T00:23:12;8.05;;;7.68;;
26690;SDS011;14307;51.718;8.938;2022-12-29T00:25:58;7.93;;;7.63;;
26690;SDS011;14307;51.718;8.938;2022-12-29T00:28:47;8.00;;;7.50;;
26690;SDS011;14307;51.718;8.938;2022-12-29T00:31:34;8.52;;;8.13;;
26690;SDS011;14307;51.718;8.938;2022-12-29T00:34:19;9.15;;;8.75;;
26690;SDS011;14307;51.718;8.938;2022-12-29T00:37:04;9.10;;;8.70;;
26690;SDS011;14307;51.718;8.938;2022-12-29T00:39:32;9.20;;;8.77;;
26690;SDS011;14307;51.718;8.938;2022-12-29T00:42:18;9.82;;;9.43;;
26690;SDS011;14307;51.718;8.938;2022-12-29T00:45:03;9.98;;;9.55;;
26690;SDS011;14307;51.718;8.938;2022-12-29T00:47:30;9.68;;;9.25;;
26690;SDS011;14307;51.718;8.938;2022-12-29T00:49:57;9.43;;;9.02;;
26690;SDS011;14307;51.718;8.938;2022-12-29T00:52:24;10.00;;;9.60;;
26690;SDS011;14307;51.718;8.938;2022-12-29T00:54:50;9.43;;;9.05;;
26690;SDS011;14307;51.718;8.938;2022-12-29T00:57:17;9.95;;;9.50;;
26690;SDS011;14307;51.718;8.938;2022-12-29T00:59:44;9.48;;;9.13;;
26690;SDS011;14307;51.718;8.938;2022-12-29T01:02:11;9.70;;;9.30;;
26690;SDS011;14307;51.718;8.938;2022-12-29T01:04:38;9.23;;;8.77;;
26690;SDS011;14307;51.718;8.938;2022-12-29T01:07:05;9.25;;;8.88;;
26690;SDS011;14307;51.718;8.938;2022-12-29T01:09:32;8.75;;;8.45;;
26690;SDS011;14307;51.718;8.938;2022-12-29T01:15:04;8.73;;;8.38;;
26690;SDS011;14307;51.718;8.938;2022-12-29T01:17:32;9.18;;;8.80;;
26690;SDS011;14307;51.718;8.938;2022-12-29T01:19:59;9.55;;;9.07;;
26690;SDS011;14307;51.718;8.938;2022-12-29T01:22:27;9.57;;;9.18;;
26690;SDS011;14307;51.718;8.938;2022-12-29T01:24:54;9.95;;;9.40;;
26690;SDS011;14307;51.718;8.938;2022-12-29T01:27:21;9.75;;;9.35;;
26690;SDS011;14307;51.718;8.938;2022-12-29T01:29:48;10.43;;;10.02;;
26690;SDS011;14307;51.718;8.938;2022-12-29T01:32:14;10.32;;;9.93;;
26690;SDS011;14307;51.718;8.938;2022-12-29T01:34:43;9.98;;;9.57;;
26690;SDS011;14307;51.718;8.938;2022-12-29T01:37:10;9.50;;;9.10;;
26690;SDS011;14307;51.718;8.938;2022-12-29T01:39:37;10.77;;;10.00;;
26690;SDS011;14307;51.718;8.938;2022-12-29T01:42:04;10.82;;;10.27;;
26690;SDS011;14307;51.718;8.938;2022-12-29T01:44:46;10.32;;;9.63;;
26690;SDS011;14307;51.718;8.938;2022-12-29T01:47:43;8.68;;;8.07;;
26690;SDS011;14307;51.718;8.938;2022-12-29T01:50:20;7.57;;;6.97;;
26690;SDS011;14307;51.718;8.938;2022-12-29T01:52:54;6.93;;;6.43;;
26690;SDS011;14307;51.718;8.938;2022-12-29T01:55:28;6.40;;;6.00;;
26690;SDS011;14307;51.718;8.938;2022-12-29T01:57:59;5.85;;;5.43;;
26690;SDS011;14307;51.718;8.938;2022-12-29T02:00:30;9.30;;;6.13;;
26690;SDS011;14307;51.718;8.938;2022-12-29T02:02:56;5.95;;;5.43;;
26690;SDS011;14307;51.718;8.938;2022-12-29T02:05:25;6.35;;;5.82;;
26690;SDS011;14307;51.718;8.938;2022-12-29T02:07:58;6.72;;;6.07;;
26690;SDS011;14307;51.718;8.938;2022-12-29T02:10:26;7.13;;;5.85;;
26690;SDS011;14307;51.718;8.938;2022-12-29T02:12:56;6.82;;;6.22;;
26690;SDS011;14307;51.718;8.938;2022-12-29T02:15:26;5.35;;;5.05;;
26690;SDS011;14307;51.718;8.938;2022-12-29T02:23:45;6.18;;;5.63;;
26690;SDS011;14307;51.718;8.938;2022-12-29T02:32:05;7.53;;;7.13;;
26690;SDS011;14307;51.718;8.938;2022-12-29T02:34:47;9.77;;;9.38;;
26690;SDS011;14307;51.718;8.938;2022-12-29T02:37:50;11.13;;;10.70;;
26690;SDS011;14307;51.718;8.938;2022-12-29T02:43:23;10.02;;;9.63;;
26690;SDS011;14307;51.718;8.938;2022-12-29T02:46:08;10.00;;;9.60;;
26690;SDS011;14307;51.718;8.938;2022-12-29T02:48:54;10.60;;;10.10;;
26690;SDS011;14307;51.718;8.938;2022-12-29T02:51:27;10.70;;;10.30;;
26690;SDS011;14307;51.718;8.938;2022-12-29T02:54:04;10.45;;;10.05;;
26690;SDS011;14307;51.718;8.938;2022-12-29T02:56:50;11.40;;;10.88;;
26690;SDS011;14307;51.718;8.938;2022-12-29T02:59:17;11.43;;;11.02;;
26690;SDS011;14307;51.718;8.938;2022-12-29T03:07:29;11.48;;;11.07;;
26690;SDS011;14307;51.718;8.938;2022-12-29T03:10:14;12.05;;;11.57;;
26690;SDS011;14307;51.718;8.938;2022-12-29T03:13:12;11.60;;;11.20;;
26690;SDS011;14307;51.718;8.938;2022-12-29T03:19:05;13.30;;;12.80;;
26690;SDS011;14307;51.718;8.938;2022-12-29T03:21:57;12.60;;;12.10;;
26690;SDS011;14307;51.718;8.938;2022-12-29T03:24:53;13.43;;;12.88;;
26690;SDS011;14307;51.718;8.938;2022-12-29T03:27:34;13.10;;;12.60;;
26690;SDS011;14307;51.718;8.938;2022-12-29T03:30:08;13.80;;;13.30;;
26690;SDS011;14307;51.718;8.938;2022-12-29T03:32:38;13.90;;;13.30;;
26690;SDS011;14307;51.718;8.938;2022-12-29T03:35:10;13.85;;;13.27;;
26690;SDS011;14307;51.718;8.938;2022-12-29T03:37:42;14.13;;;13.32;;
26690;SDS011;14307;51.718;8.938;2022-12-29T03:40:15;13.85;;;13.25;;
26690;SDS011;14307;51.718;8.938;2022-12-29T03:42:44;13.10;;;12.60;;
26690;SDS011;14307;51.718;8.938;2022-12-29T03:45:13;13.27;;;12.77;;
26690;SDS011;14307;51.718;8.938;2022-12-29T03:47:40;13.40;;;12.90;;
26690;SDS011;14307;51.718;8.938;2022-12-29T03:50:07;14.05;;;13.45;;
26690;SDS011;14307;51.718;8.938;2022-12-29T03:52:38;14.55;;;13.90;;
26690;SDS011;14307;51.718;8.938;2022-12-29T03:55:05;13.85;;;13.25;;
26690;SDS011;14307;51.718;8.938;2022-12-29T03:57:32;13.90;;;13.30;;
26690;SDS011;14307;51.718;8.938;2022-12-29T04:00:04;14.40;;;13.70;;
26690;SDS011;14307;51.718;8.938;2022-12-29T04:02:40;14.60;;;13.93;;
26690;SDS011;14307;51.718;8.938;2022-12-29T04:05:10;14.93;;;14.23;;
26690;SDS011;14307;51.718;8.938;2022-12-29T04:07:37;14.73;;;14.07;;
26690;SDS011;14307;51.718;8.938;2022-12-29T04:10:04;14.90;;;14.20;;
26690;SDS011;14307;51.718;8.938;2022-12-29T04:12:33;14.98;;;14.15;;
26690;SDS011;14307;51.718;8.938;2022-12-29T04:15:00;14.70;;;14.10;;
26690;SDS011;14307;51.718;8.938;2022-12-29T04:17:27;14.50;;;13.90;;
26690;SDS011;14307;51.718;8.938;2022-12-29T04:19:53;14.48;;;13.77;;
26690;SDS011;14307;51.718;8.938;2022-12-29T04:22:40;15.27;;;14.57;;
26690;SDS011;14307;51.718;8.938;2022-12-29T04:25:07;14.57;;;13.90;;
26690;SDS011;14307;51.718;8.938;2022-12-29T04:27:34;15.48;;;14.82;;
26690;SDS011;14307;51.718;8.938;2022-12-29T04:30:16;14.88;;;14.23;;
26690;SDS011;14307;51.718;8.938;2022-12-29T04:32:58;14.80;;;14.20;;
26690;SDS011;14307;51.718;8.938;2022-12-29T04:35:24;14.20;;;13.60;;
26690;SDS011;14307;51.718;8.938;2022-12-29T04:37:51;14.35;;;13.75;;
26690;SDS011;14307;51.718;8.938;2022-12-29T04:40:18;14.13;;;13.52;;
26690;SDS011;14307;51.718;8.938;2022-12-29T04:42:44;14.35;;;13.70;;
26690;SDS011;14307;51.718;8.938;2022-12-29T04:45:11;14.20;;;13.60;;
26690;SDS011;14307;51.718;8.938;2022-12-29T04:47:50;14.27;;;13.73;;
26690;SDS011;14307;51.718;8.938;2022-12-29T04:50:43;13.90;;;13.30;;
26690;SDS011;14307;51.718;8.938;2022-12-29T04:53:16;13.80;;;13.30;;
26690;SDS011;14307;51.718;8.938;2022-12-29T04:55:47;14.02;;;13.38;;
26690;SDS011;14307;51.718;8.938;2022-12-29T04:58:18;13.00;;;12.50;;
26690;SDS011;14307;51.718;8.938;2022-12-29T05:00:48;13.20;;;12.60;;
26690;SDS011;14307;51.718;8.938;2022-12-29T05:03:16;12.73;;;12.23;;
26690;SDS011;14307;51.718;8.938;2022-12-29T05:05:44;13.05;;;12.55;;
26690;SDS011;14307;51.718;8.938;2022-12-29T05:08:11;13.20;;;12.70;;
26690;SDS011;14307;51.718;8.938;2022-12-29T05:10:37;13.68;;;13.10;;
26690;SDS011;14307;51.718;8.938;2022-12-29T05:13:09;14.30;;;13.60;;
26690;SDS011;14307;51.718;8.938;2022-12-29T05:15:37;13.57;;;12.88;;
26690;SDS011;14307;51.718;8.938;2022-12-29T05:18:04;12.88;;;12.38;;
26690;SDS011;14307;51.718;8.938;2022-12-29T05:20:31;13.15;;;12.50;;
26690;SDS011;14307;51.718;8.938;2022-12-29T05:22:57;13.10;;;12.40;;
26690;SDS011;14307;51.718;8.938;2022-12-29T05:25:24;12.93;;;12.43;;
26690;SDS011;14307;51.718;8.938;2022-12-29T05:27:58;12.00;;;11.60;;
26690;SDS011;14307;51.718;8.938;2022-12-29T05:30:41;12.70;;;12.10;;
26690;SDS011;14307;51.718;8.938;2022-12-29T05:33:08;12.50;;;12.00;;
26690;SDS011;14307;51.718;8.938;2022-12-29T05:35:38;13.20;;;12.60;;
26690;SDS011;14307;51.718;8.938;2022-12-29T05:38:05;12.50;;;12.00;;
26690;SDS011;14307;51.718;8.938;2022-12-29T05:40:33;12.80;;;12.30;;
26690;SDS011;14307;51.718;8.938;2022-12-29T05:43:04;12.35;;;11.75;;
26690;SDS011;14307;51.718;8.938;2022-12-29T05:45:50;11.77;;;11.38;;
26690;SDS011;14307;51.718;8.938;2022-12-29T05:48:35;12.35;;;11.90;;
26690;SDS011;14307;51.718;8.938;2022-12-29T05:51:13;12.20;;;11.80;;
26690;SDS011;14307;51.718;8.938;2022-12-29T05:56:15;15.68;;;14.65;;
26690;SDS011;14307;51.718;8.938;2022-12-29T05:58:44;17.63;;;16.13;;
26690;SDS011;14307;51.718;8.938;2022-12-29T06:01:10;12.32;;;11.82;;
26690;SDS011;14307;51.718;8.938;2022-12-29T06:03:37;12.63;;;12.13;;
26690;SDS011;14307;51.718;8.938;2022-12-29T06:06:13;13.00;;;12.50;;
26690;SDS011;14307;51.718;8.938;2022-12-29T06:08:40;12.82;;;12.32;;
26690;SDS011;14307;51.718;8.938;2022-12-29T06:11:08;13.00;;;12.50;;
26690;SDS011;14307;51.718;8.938;2022-12-29T06:13:35;14.13;;;13.63;;
26690;SDS011;14307;51.718;8.938;2022-12-29T06:16:01;14.40;;;13.80;;
26690;SDS011;14307;51.718;8.938;2022-12-29T06:18:29;15.10;;;14.30;;
26690;SDS011;14307;51.718;8.938;2022-12-29T06:21:00;14.55;;;13.95;;
26690;SDS011;14307;51.718;8.938;2022-12-29T06:23:27;14.90;;;14.30;;
26690;SDS011;14307;51.718;8.938;2022-12-29T06:25:55;14.90;;;14.30;;
26690;SDS011;14307;51.718;8.938;2022-12-29T06:28:22;15.23;;;14.60;;
26690;SDS011;14307;51.718;8.938;2022-12-29T06:30:49;15.32;;;14.63;;
26690;SDS011;14307;51.718;8.938;2022-12-29T06:33:17;15.38;;;14.70;;
26690;SDS011;14307;51.718;8.938;2022-12-29T06:35:44;15.70;;;14.90;;
26690;SDS011;14307;51.718;8.938;2022-12-29T06:38:13;15.68;;;14.93;;
26690;SDS011;14307;51.718;8.938;2022-12-29T06:40:41;15.18;;;14.57;;
26690;SDS011;14307;51.718;8.938;2022-12-29T06:43:29;15.35;;;14.65;;
26690;SDS011;14307;51.718;8.938;2022-12-29T06:46:01;15.52;;;14.73;;
26690;SDS011;14307;51.718;8.938;2022-12-29T06:48:28;16.23;;;15.43;;
26690;SDS011;14307;51.718;8.938;2022-12-29T06:50:54;16.10;;;15.30;;
26690;SDS011;14307;51.718;8.938;2022-12-29T06:53:21;16.05;;;15.25;;
26690;SDS011;14307;51.718;8.938;2022-12-29T06:55:48;16.20;;;15.35;;
26690;SDS011;14307;51.718;8.938;2022-12-29T06:58:16;16.45;;;15.40;;
26690;SDS011;14307;51.718;8.938;2022-12-29T07:00:43;15.40;;;14.80;;
26690;SDS011;14307;51.718;8.938;2022-12-29T07:03:09;15.05;;;14.35;;
26690;SDS011;14307;51.718;8.938;2022-12-29T07:05:37;15.65;;;14.93;;
26690;SDS011;14307;51.718;8.938;2022-12-29T07:08:03;16.55;;;15.55;;
26690;SDS011;14307;51.718;8.938;2022-12-29T07:10:31;16.40;;;15.60;;
26690;SDS011;14307;51.718;8.938;2022-12-29T07:12:58;16.35;;;15.50;;
26690;SDS011;14307;51.718;8.938;2022-12-29T07:15:24;16.27;;;15.57;;
26690;SDS011;14307;51.718;8.938;2022-12-29T07:17:51;16.60;;;15.80;;
26690;SDS011;14307;51.718;8.938;2022-12-29T07:20:18;16.17;;;15.38;;
26690;SDS011;14307;51.718;8.938;2022-12-29T07:22:52;16.23;;;15.52;;
26690;SDS011;14307;51.718;8.938;2022-12-29T07:25:18;15.88;;;15.18;;
26690;SDS011;14307;51.718;8.938;2022-12-29T07:27:45;15.80;;;15.10;;
26690;SDS011;14307;51.718;8.938;2022-12-29T07:30:12;15.77;;;15.07;;
26690;SDS011;14307;51.718;8.938;2022-12-29T07:32:39;16.00;;;15.30;;
26690;SDS011;14307;51.718;8.938;2022-12-29T07:35:05;15.30;;;14.60;;
26690;SDS011;14307;51.718;8.938;2022-12-29T07:37:33;15.77;;;15.07;;
26690;SDS011;14307;51.718;8.938;2022-12-29T07:40:01;16.13;;;15.43;;
26690;SDS011;14307;51.718;8.938;2022-12-29T07:42:30;15.73;;;15.02;;
26690;SDS011;14307;51.718;8.938;2022-12-29T07:44:58;16.00;;;15.30;;
26690;SDS011;14307;51.718;8.938;2022-12-29T07:47:32;15.73;;;15.10;;
26690;SDS011;14307;51.718;8.938;2022-12-29T07:49:59;15.95;;;15.25;;
26690;SDS011;14307;51.718;8.938;2022-12-29T07:52:26;17.20;;;16.10;;
26690;SDS011;14307;51.718;8.938;2022-12-29T07:54:52;16.60;;;15.70;;
26690;SDS011;14307;51.718;8.938;2022-12-29T07:57:19;16.40;;;15.60;;
26690;SDS011;14307;51.718;8.938;2022-12-29T07:59:51;16.02;;;15.23;;
26690;SDS011;14307;51.718;8.938;2022-12-29T08:02:18;16.17;;;15.40;;
26690;SDS011;14307;51.718;8.938;2022-12-29T08:04:45;15.77;;;15.07;;
26690;SDS011;14307;51.718;8.938;2022-12-29T08:07:11;14.80;;;14.20;;
26690;SDS011;14307;51.718;8.938;2022-12-29T08:09:38;14.13;;;13.43;;
26690;SDS011;14307;51.718;8.938;2022-12-29T08:12:05;14.15;;;13.43;;
26690;SDS011;14307;51.718;8.938;2022-12-29T08:14:32;13.70;;;12.82;;
26690;SDS011;14307;51.718;8.938;2022-12-29T08:16:58;12.88;;;12.38;;
26690;SDS011;14307;51.718;8.938;2022-12-29T08:19:25;13.35;;;12.85;;
26690;SDS011;14307;51.718;8.938;2022-12-29T08:21:52;13.40;;;12.80;;
26690;SDS011;14307;51.718;8.938;2022-12-29T08:24:19;13.98;;;13.27;;
26690;SDS011;14307;51.718;8.938;2022-12-29T08:26:46;10.52;;;10.10;;
26690;SDS011;14307;51.718;8.938;2022-12-29T08:29:12;10.43;;;9.80;;
26690;SDS011;14307;51.718;8.938;2022-12-29T08:31:39;9.50;;;8.93;;
26690;SDS011;14307;51.718;8.938;2022-12-29T08:34:06;10.00;;;9.50;;
26690;SDS011;14307;51.718;8.938;2022-12-29T08:36:33;14.65;;;13.95;;
26690;SDS011;14307;51.718;8.938;2022-12-29T08:38:59;17.23;;;16.52;;
26690;SDS011;14307;51.718;8.938;2022-12-29T08:41:26;17.30;;;16.23;;
26690;SDS011;14307;51.718;8.938;2022-12-29T08:43:53;16.75;;;16.05;;
26690;SDS011;14307;51.718;8.938;2022-12-29T08:46:19;13.88;;;13.18;;
26690;SDS011;14307;51.718;8.938;2022-12-29T08:48:46;12.23;;;11.63;;
26690;SDS011;14307;51.718;8.938;2022-12-29T08:51:13;12.30;;;11.80;;
26690;SDS011;14307;51.718;8.938;2022-12-29T08:53:41;11.13;;;10.32;;
26690;SDS011;14307;51.718;8.938;2022-12-29T08:56:08;10.82;;;10.15;;
26690;SDS011;14307;51.718;8.938;2022-12-29T08:58:44;13.50;;;12.80;;
26690;SDS011;14307;51.718;8.938;2022-12-29T09:01:10;11.60;;;11.10;;
26690;SDS011;14307;51.718;8.938;2022-12-29T09:03:37;11.50;;;10.90;;
26690;SDS011;14307;51.718;8.938;2022-12-29T09:06:24;11.15;;;10.48;;
26690;SDS011;14307;51.718;8.938;2022-12-29T09:08:52;12.93;;;12.00;;
26690;SDS011;14307;51.718;8.938;2022-12-29T09:11:20;12.40;;;11.60;;
26690;SDS011;14307;51.718;8.938;2022-12-29T09:13:49;11.02;;;10.50;;
26690;SDS011;14307;51.718;8.938;2022-12-29T09:16:17;11.50;;;10.98;;
26690;SDS011;14307;51.718;8.938;2022-12-29T09:18:44;11.30;;;10.73;;
26690;SDS011;14307;51.718;8.938;2022-12-29T09:21:11;12.88;;;12.10;;
26690;SDS011;14307;51.718;8.938;2022-12-29T09:23:39;13.38;;;12.57;;
26690;SDS011;14307;51.718;8.938;2022-12-29T09:26:06;12.48;;;11.75;;
26690;SDS011;14307;51.718;8.938;2022-12-29T09:28:34;12.98;;;11.85;;
26690;SDS011;14307;51.718;8.938;2022-12-29T09:31:01;11.82;;;11.10;;
26690;SDS011;14307;51.718;8.938;2022-12-29T09:33:28;13.38;;;12.65;;
26690;SDS011;14307;51.718;8.938;2022-12-29T09:35:56;13.95;;;13.15;;
26690;SDS011;14307;51.718;8.938;2022-12-29T09:38:25;13.07;;;12.32;;
26690;SDS011;14307;51.718;8.938;2022-12-29T09:40:54;12.00;;;11.30;;
26690;SDS011;14307;51.718;8.938;2022-12-29T09:43:44;12.20;;;11.25;;
26690;SDS011;14307;51.718;8.938;2022-12-29T09:46:36;12.15;;;11.40;;
26690;SDS011;14307;51.718;8.938;2022-12-29T09:51:39;14.70;;;14.00;;
26690;SDS011;14307;51.718;8.938;2022-12-29T09:56:59;15.90;;;15.20;;
26690;SDS011;14307;51.718;8.938;2022-12-29T09:59:41;15.15;;;14.55;;
26690;SDS011;14307;51.718;8.938;2022-12-29T10:04:58;18.30;;;17.40;;
26690;SDS011;14307;51.718;8.938;2022-12-29T10:10:17;18.10;;;17.20;;
26690;SDS011;14307;51.718;8.938;2022-12-29T10:13:15;20.98;;;19.95;;
26690;SDS011;14307;51.718;8.938;2022-12-29T10:24:14;17.40;;;16.60;;
26690;SDS011;14307;51.718;8.938;2022-12-29T10:26:43;15.90;;;14.88;;
26690;SDS011;14307;51.718;8.938;2022-12-29T10:29:13;17.15;;;16.05;;
26690;SDS011;14307;51.718;8.938;2022-12-29T10:34:54;17.63;;;16.73;;
26690;SDS011;14307;51.718;8.938;2022-12-29T10:37:39;16.98;;;16.10;;
26690;SDS011;14307;51.718;8.938;2022-12-29T10:40:28;16.30;;;15.57;;
26690;SDS011;14307;51.718;8.938;2022-12-29T10:43:02;18.60;;;17.45;;
26690;SDS011;14307;51.718;8.938;2022-12-29T10:45:46;18.67;;;17.45;;
26690;SDS011;14307;51.718;8.938;2022-12-29T10:48:21;17.98;;;16.77;;
26690;SDS011;14307;51.718;8.938;2022-12-29T10:50:57;15.70;;;14.70;;
26690;SDS011;14307;51.718;8.938;2022-12-29T10:53:35;10.63;;;9.75;;
26690;SDS011;14307;51.718;8.938;2022-12-29T10:56:33;7.20;;;6.55;;
26690;SDS011;14307;51.718;8.938;2022-12-29T10:59:14;6.38;;;5.97;;
26690;SDS011;14307;51.718;8.938;2022-12-29T11:01:58;6.95;;;6.50;;
26690;SDS011;14307;51.718;8.938;2022-12-29T11:07:30;6.57;;;5.90;;
26690;SDS011;14307;51.718;8.938;2022-12-29T11:10:17;7.53;;;6.60;;
26690;SDS011;14307;51.718;8.938;2022-12-29T11:13:10;9.75;;;9.05;;
26690;SDS011;14307;51.718;8.938;2022-12-29T11:15:38;13.23;;;9.70;;
26690;SDS011;14307;51.718;8.938;2022-12-29T11:18:17;10.88;;;9.90;;
26690;SDS011;14307;51.718;8.938;2022-12-29T11:20:46;9.98;;;9.13;;
26690;SDS011;14307;51.718;8.938;2022-12-29T11:23:23;15.10;;;13.95;;
26690;SDS011;14307;51.718;8.938;2022-12-29T11:29:02;16.88;;;15.60;;
26690;SDS011;14307;51.718;8.938;2022-12-29T11:31:30;16.15;;;15.23;;
26690;SDS011;14307;51.718;8.938;2022-12-29T11:33:57;17.05;;;15.93;;
26690;SDS011;14307;51.718;8.938;2022-12-29T11:36:24;17.42;;;16.35;;
26690;SDS011;14307;51.718;8.938;2022-12-29T11:38:51;17.48;;;16.55;;
26690;SDS011;14307;51.718;8.938;2022-12-29T11:41:24;18.88;;;17.48;;
26690;SDS011;14307;51.718;8.938;2022-12-29T11:43:56;17.92;;;16.80;;
26690;SDS011;14307;51.718;8.938;2022-12-29T11:46:34;19.48;;;18.38;;
26690;SDS011;14307;51.718;8.938;2022-12-29T11:49:04;18.48;;;17.38;;
26690;SDS011;14307;51.718;8.938;2022-12-29T11:52:05;18.98;;;17.88;;
26690;SDS011;14307;51.718;8.938;2022-12-29T11:56:53;18.02;;;16.70;;
26690;SDS011;14307;51.718;8.938;2022-12-29T12:01:56;20.77;;;19.38;;
26690;SDS011;14307;51.718;8.938;2022-12-29T12:04:26;20.15;;;19.00;;
26690;SDS011;14307;51.718;8.938;2022-12-29T12:07:17;20.17;;;18.90;;
26690;SDS011;14307;51.718;8.938;2022-12-29T12:09:51;21.42;;;20.13;;
26690;SDS011;14307;51.718;8.938;2022-12-29T12:12:43;23.45;;;21.65;;
26690;SDS011;14307;51.718;8.938;2022-12-29T12:21:12;25.67;;;23.55;;
26690;SDS011;14307;51.718;8.938;2022-12-29T12:24:07;22.25;;;20.77;;
26690;SDS011;14307;51.718;8.938;2022-12-29T12:29:50;20.98;;;19.73;;
26690;SDS011;14307;51.718;8.938;2022-12-29T12:32:39;19.17;;;18.27;;
26690;SDS011;14307;51.718;8.938;2022-12-29T12:41:10;18.63;;;17.63;;
26690;SDS011;14307;51.718;8.938;2022-12-29T12:43:49;19.77;;;18.65;;
26690;SDS011;14307;51.718;8.938;2022-12-29T12:55:29;19.80;;;18.77;;
26690;SDS011;14307;51.718;8.938;2022-12-29T13:10:02;20.98;;;19.60;;
26690;SDS011;14307;51.718;8.938;2022-12-29T13:12:41;20.33;;;19.13;;
26690;SDS011;14307;51.718;8.938;2022-12-29T13:15:44;21.02;;;19.60;;
26690;SDS011;14307;51.718;8.938;2022-12-29T13:18:25;20.48;;;19.25;;
26690;SDS011;14307;51.718;8.938;2022-12-29T13:24:15;20.40;;;18.95;;
26690;SDS011;14307;51.718;8.938;2022-12-29T13:32:23;22.27;;;20.45;;
26690;SDS011;14307;51.718;8.938;2022-12-29T13:34:56;21.42;;;19.98;;
26690;SDS011;14307;51.718;8.938;2022-12-29T13:37:51;19.00;;;17.30;;
26690;SDS011;14307;51.718;8.938;2022-12-29T13:40:27;18.88;;;17.40;;
26690;SDS011;14307;51.718;8.938;2022-12-29T13:43:00;17.10;;;16.08;;
26690;SDS011;14307;51.718;8.938;2022-12-29T13:45:29;17.08;;;15.05;;
26690;SDS011;14307;51.718;8.938;2022-12-29T13:48:01;18.05;;;16.00;;
26690;SDS011;14307;51.718;8.938;2022-12-29T13:50:54;17.08;;;15.77;;
26690;SDS011;14307;51.718;8.938;2022-12-29T13:53:39;16.83;;;15.35;;
26690;SDS011;14307;51.718;8.938;2022-12-29T13:56:26;18.02;;;16.58;;
26690;SDS011;14307;51.718;8.938;2022-12-29T14:01:48;18.42;;;17.08;;
26690;SDS011;14307;51.718;8.938;2022-12-29T14:04:30;18.75;;;17.25;;
26690;SDS011;14307;51.718;8.938;2022-12-29T14:12:18;17.92;;;16.67;;
26690;SDS011;14307;51.718;8.938;2022-12-29T14:14:51;17.48;;;15.95;;
26690;SDS011;14307;51.718;8.938;2022-12-29T14:17:19;16.50;;;15.13;;
26690;SDS011;14307;51.718;8.938;2022-12-29T14:19:47;17.77;;;16.10;;
26690;SDS011;14307;51.718;8.938;2022-12-29T14:22:25;16.90;;;15.45;;
26690;SDS011;14307;51.718;8.938;2022-12-29T14:24:58;16.85;;;14.82;;
26690;SDS011;14307;51.718;8.938;2022-12-29T14:29:56;14.68;;;13.35;;
26690;SDS011;14307;51.718;8.938;2022-12-29T14:34:53;19.25;;;17.27;;
26690;SDS011;14307;51.718;8.938;2022-12-29T14:37:25;15.40;;;13.95;;
26690;SDS011;14307;51.718;8.938;2022-12-29T14:42:29;14.18;;;13.18;;
26690;SDS011;14307;51.718;8.938;2022-12-29T14:44:58;14.02;;;12.93;;
26690;SDS011;14307;51.718;8.938;2022-12-29T14:47:51;14.82;;;13.75;;
26690;SDS011;14307;51.718;8.938;2022-12-29T14:50:23;12.90;;;12.13;;
26690;SDS011;14307;51.718;8.938;2022-12-29T14:52:53;14.07;;;13.00;;
26690;SDS011;14307;51.718;8.938;2022-12-29T14:58:20;15.15;;;14.23;;
26690;SDS011;14307;51.718;8.938;2022-12-29T15:00:58;14.35;;;13.13;;
26690;SDS011;14307;51.718;8.938;2022-12-29T15:06:03;14.80;;;13.70;;
26690;SDS011;14307;51.718;8.938;2022-12-29T15:08:36;15.45;;;14.15;;
26690;SDS011;14307;51.718;8.938;2022-12-29T15:11:31;15.43;;;14.23;;
26690;SDS011;14307;51.718;8.938;2022-12-29T15:14:27;16.00;;;15.00;;
26690;SDS011;14307;51.718;8.938;2022-12-29T15:16:57;16.27;;;15.18;;
26690;SDS011;14307;51.718;8.938;2022-12-29T15:19:24;18.35;;;16.77;;
26690;SDS011;14307;51.718;8.938;2022-12-29T15:21:52;17.88;;;16.13;;
26690;SDS011;14307;51.718;8.938;2022-12-29T15:24:20;17.42;;;15.95;;
26690;SDS011;14307;51.718;8.938;2022-12-29T15:26:51;16.83;;;15.18;;
26690;SDS011;14307;51.718;8.938;2022-12-29T15:29:42;17.02;;;15.65;;
26690;SDS011;14307;51.718;8.938;2022-12-29T15:32:23;17.85;;;16.52;;
26690;SDS011;14307;51.718;8.938;2022-12-29T15:34:53;17.42;;;16.08;;
26690;SDS011;14307;51.718;8.938;2022-12-29T15:39:51;17.70;;;16.25;;
26690;SDS011;14307;51.718;8.938;2022-12-29T15:42:32;17.58;;;16.33;;
26690;SDS011;14307;51.718;8.938;2022-12-29T15:45:04;17.70;;;16.20;;
26690;SDS011;14307;51.718;8.938;2022-12-29T15:47:36;18.85;;;17.13;;
26690;SDS011;14307;51.718;8.938;2022-12-29T15:50:22;18.08;;;16.77;;
26690;SDS011;14307;51.718;8.938;2022-12-29T15:52:54;17.55;;;16.23;;
26690;SDS011;14307;51.718;8.938;2022-12-29T15:55:27;17.50;;;16.00;;
26690;SDS011;14307;51.718;8.938;2022-12-29T15:58:04;16.83;;;15.93;;
26690;SDS011;14307;51.718;8.938;2022-12-29T16:00:33;18.85;;;17.08;;
26690;SDS011;14307;51.718;8.938;2022-12-29T16:03:04;19.70;;;17.92;;
26690;SDS011;14307;51.718;8.938;2022-12-29T16:05:36;19.58;;;18.15;;
26690;SDS011;14307;51.718;8.938;2022-12-29T16:08:21;18.23;;;16.92;;
26690;SDS011;14307;51.718;8.938;2022-12-29T16:10:57;16.10;;;15.02;;
26690;SDS011;14307;51.718;8.938;2022-12-29T16:16:08;18.52;;;17.13;;
26690;SDS011;14307;51.718;8.938;2022-12-29T16:18:45;17.70;;;16.65;;
26690;SDS011;14307;51.718;8.938;2022-12-29T16:21:31;16.70;;;15.60;;
26690;SDS011;14307;51.718;8.938;2022-12-29T16:24:00;17.38;;;16.10;;
26690;SDS011;14307;51.718;8.938;2022-12-29T16:26:31;19.25;;;17.50;;
26690;SDS011;14307;51.718;8.938;2022-12-29T16:28:59;17.40;;;16.02;;
26690;SDS011;14307;51.718;8.938;2022-12-29T16:31:35;17.83;;;16.42;;
26690;SDS011;14307;51.718;8.938;2022-12-29T16:34:22;17.67;;;16.13;;
26690;SDS011;14307;51.718;8.938;2022-12-29T16:39:50;17.52;;;16.20;;
26690;SDS011;14307;51.718;8.938;2022-12-29T16:42:33;16.23;;;14.98;;
26690;SDS011;14307;51.718;8.938;2022-12-29T16:47:47;15.23;;;14.23;;
26690;SDS011;14307;51.718;8.938;2022-12-29T16:50:36;14.82;;;13.82;;
26690;SDS011;14307;51.718;8.938;2022-12-29T16:53:05;14.52;;;13.48;;
26690;SDS011;14307;51.718;8.938;2022-12-29T16:55:45;13.80;;;13.00;;
26690;SDS011;14307;51.718;8.938;2022-12-29T16:58:16;15.00;;;13.90;;
26690;SDS011;14307;51.718;8.938;2022-12-29T17:00:47;15.10;;;14.20;;
26690;SDS011;14307;51.718;8.938;2022-12-29T17:03:14;15.18;;;14.38;;
26690;SDS011;14307;51.718;8.938;2022-12-29T17:05:42;16.60;;;15.25;;
26690;SDS011;14307;51.718;8.938;2022-12-29T17:08:16;15.85;;;14.52;;
26690;SDS011;14307;51.718;8.938;2022-12-29T17:10:49;15.10;;;14.10;;
26690;SDS011;14307;51.718;8.938;2022-12-29T17:13:37;15.25;;;14.10;;
26690;SDS011;14307;51.718;8.938;2022-12-29T17:16:05;14.82;;;13.73;;
26690;SDS011;14307;51.718;8.938;2022-12-29T17:18:33;15.10;;;13.88;;